createdAt,value
2019-06-01T00:00:10.852Z,98583.36
2019-06-01T00:01:07.242Z,98590.67
2019-06-01T00:02:15.917Z,98585.30
2019-06-01T00:03:24.248Z,98589.89
2019-06-01T00:04:28.328Z,98592.26
2019-06-01T00:05:38.432Z,98592.26
2019-06-01T00:06:42.853Z,98591.08
2019-06-01T00:07:49.830Z,98589.55
2019-06-01T00:08:52.624Z,98593.13
2019-06-01T00:10:00.880Z,98590.59
2019-06-01T00:11:03.777Z,98592.86
2019-06-01T00:12:07.506Z,98584.44
2019-06-01T00:13:13.678Z,98592.75
2019-06-01T00:14:19.854Z,98590.36
2019-06-01T00:15:22.891Z,98584.44
2019-06-01T00:16:26.349Z,98584.44
2019-06-01T00:17:30.054Z,98586.62
2019-06-01T00:18:36.482Z,98580.48
2019-06-01T00:19:41.993Z,98579.70
2019-06-01T00:20:48.412Z,98579.70
2019-06-01T00:21:54.326Z,98578.70
2019-06-01T00:22:59.447Z,98578.70
2019-06-01T00:24:02.640Z,98580.80
2019-06-01T00:25:06.191Z,98582.95
2019-06-01T00:26:16.117Z,98586.01
2019-06-01T00:27:19.892Z,98582.24
2019-06-01T00:28:23.655Z,98584.77
2019-06-01T00:29:30.180Z,98582.80
2019-06-01T00:30:33.324Z,98582.80
2019-06-01T00:31:36.964Z,98580.57
2019-06-01T00:32:41.470Z,98581.36
2019-06-01T00:33:49.509Z,98581.36
2019-06-01T00:34:52.428Z,98582.08
2019-06-01T00:35:55.866Z,98582.08
2019-06-01T00:36:58.934Z,98581.66
2019-06-01T00:38:02.417Z,98580.16
2019-06-01T00:39:05.313Z,98581.46
2019-06-01T00:40:09.257Z,98580.36
2019-06-01T00:41:12.144Z,98579.78
2019-06-01T00:42:17.750Z,98581.73
2019-06-01T00:43:21.297Z,98581.73
2019-06-01T00:44:24.693Z,98579.47
2019-06-01T00:45:27.521Z,98573.69
2019-06-01T00:46:31.420Z,98577.77
2019-06-01T00:47:40.141Z,98580.50
2019-06-01T00:48:55.699Z,98580.50
2019-06-01T00:49:58.543Z,98576.55
2019-06-01T00:51:11.114Z,98576.55
2019-06-01T00:52:14.005Z,98585.83
2019-06-01T00:53:17.420Z,98587.50
2019-06-01T00:54:23.258Z,98583.06
2019-06-01T00:55:28.662Z,98583.06
2019-06-01T00:56:32.846Z,98585.50
2019-06-01T00:57:36.328Z,98584.67
2019-06-01T00:58:39.203Z,98581.98
2019-06-01T00:59:45.912Z,98581.98
2019-06-01T01:00:49.407Z,98580.86
2019-06-01T01:01:56.893Z,98580.86
2019-06-01T01:02:59.794Z,98583.70
2019-06-01T01:04:03.183Z,98584.17
2019-06-01T01:05:06.087Z,98584.17
2019-06-01T01:06:09.960Z,98583.55
2019-06-01T01:07:12.781Z,98585.89
2019-06-01T01:08:16.560Z,98584.77
2019-06-01T01:09:24.920Z,98586.92
2019-06-01T01:10:28.318Z,98586.92
2019-06-01T01:11:34.128Z,98585.06
2019-06-01T01:12:55.735Z,98585.99
2019-06-01T01:13:58.815Z,98585.28
2019-06-01T01:15:02.629Z,98585.28
2019-06-01T01:16:05.574Z,98582.89
2019-06-01T01:17:09.016Z,98583.95
2019-06-01T01:18:11.842Z,98590.08
2019-06-01T01:19:15.346Z,98588.36
2019-06-01T01:20:18.538Z,98588.36
2019-06-01T01:21:24.572Z,98586.44
2019-06-01T01:22:39.540Z,98586.53
2019-06-01T01:23:46.214Z,98586.78
2019-06-01T01:24:50.404Z,98586.78
2019-06-01T01:25:54.583Z,98588.09
2019-06-01T01:26:57.787Z,98586.29
2019-06-01T01:28:01.229Z,98587.11
2019-06-01T01:29:04.700Z,98586.67
2019-06-01T01:30:08.110Z,98589.16
2019-06-01T01:31:14.201Z,98590.73
2019-06-01T01:32:15.891Z,98586.59
2019-06-01T01:33:19.108Z,98586.92
2019-06-01T01:34:25.031Z,98584.58
2019-06-01T01:35:33.955Z,98590.81
2019-06-01T01:36:37.459Z,98590.81
2019-06-01T01:37:43.586Z,98584.86
2019-06-01T01:38:52.064Z,98588.48
2019-06-01T01:39:56.279Z,98590.09
2019-06-01T01:40:59.840Z,98593.53
2019-06-01T01:42:02.676Z,98594.75
2019-06-01T01:43:11.664Z,98588.52
2019-06-01T01:44:17.367Z,98594.38
2019-06-01T01:45:23.528Z,98586.09
2019-06-01T01:46:26.602Z,98586.09
2019-06-01T01:47:35.814Z,98586.67
2019-06-01T01:48:38.344Z,98591.11
2019-06-01T01:49:44.948Z,98594.08
2019-06-01T01:50:47.743Z,98592.98
2019-06-01T01:51:52.719Z,98587.39
2019-06-01T01:52:56.903Z,98587.12
2019-06-01T01:54:00.545Z,98587.12
2019-06-01T01:55:03.426Z,98597.11
2019-06-01T01:56:19.215Z,98591.34
2019-06-01T01:57:22.011Z,98597.66
2019-06-01T01:58:25.734Z,98597.66
2019-06-01T01:59:29.016Z,98596.41
2019-06-01T02:00:32.409Z,98593.59
2019-06-01T02:01:35.279Z,98593.59
2019-06-01T02:02:39.083Z,98598.31
2019-06-01T02:03:42.387Z,98598.31
2019-06-01T02:04:45.910Z,98588.78
2019-06-01T02:05:50.775Z,98588.78
2019-06-01T02:06:55.904Z,98588.78
2019-06-01T02:08:00.121Z,98583.41
2019-06-01T02:09:04.120Z,98583.41
2019-06-01T02:10:08.208Z,98581.13
2019-06-01T02:11:11.597Z,98586.05
2019-06-01T02:12:14.776Z,98586.50
2019-06-01T02:13:18.182Z,98582.11
2019-06-01T02:14:20.972Z,98583.56
2019-06-01T02:15:24.450Z,98583.56
2019-06-01T02:16:27.276Z,98588.78
2019-06-01T02:17:30.668Z,98596.06
2019-06-01T02:18:33.535Z,98589.74
2019-06-01T02:19:36.995Z,98593.92
2019-06-01T02:20:39.785Z,98589.55
2019-06-01T02:21:43.159Z,98593.80
2019-06-01T02:22:45.959Z,98593.80
2019-06-01T02:23:49.772Z,98597.77
2019-06-01T02:24:53.742Z,98597.77
2019-06-01T02:25:57.273Z,98597.02
2019-06-01T02:27:01.272Z,98595.98
2019-06-01T02:28:04.874Z,98593.02
2019-06-01T02:29:10.014Z,98600.63
2019-06-01T02:30:13.710Z,98591.23
2019-06-01T02:31:16.526Z,98591.21
2019-06-01T02:32:20.002Z,98591.21
2019-06-01T02:33:22.873Z,98587.67
2019-06-01T02:34:26.272Z,98585.31
2019-06-01T02:35:29.462Z,98585.31
2019-06-01T02:36:33.254Z,98584.38
2019-06-01T02:37:36.080Z,98588.66
2019-06-01T02:38:42.638Z,98587.11
2019-06-01T02:39:45.454Z,98582.84
2019-06-01T02:40:48.858Z,98582.84
2019-06-01T02:41:51.695Z,98583.95
2019-06-01T02:42:56.966Z,98583.95
2019-06-01T02:44:01.652Z,98579.22
2019-06-01T02:45:05.794Z,98580.43
2019-06-01T02:46:08.723Z,98580.43
2019-06-01T02:47:12.618Z,98577.63
2019-06-01T02:48:15.397Z,98577.96
2019-06-01T02:49:20.954Z,98577.94
2019-06-01T02:50:26.351Z,98573.36
2019-06-01T02:51:29.740Z,98566.53
2019-06-01T02:52:32.540Z,98569.77
2019-06-01T02:53:37.830Z,98570.66
2019-06-01T02:54:40.703Z,98570.66
2019-06-01T02:55:44.403Z,98565.55
2019-06-01T02:56:51.596Z,98568.36
2019-06-01T02:57:55.982Z,98569.72
2019-06-01T02:58:58.867Z,98569.95
2019-06-01T03:00:02.741Z,98569.95
2019-06-01T03:01:06.916Z,98570.46
2019-06-01T03:02:14.202Z,98573.28
2019-06-01T03:03:15.348Z,98569.19
2019-06-01T03:04:18.796Z,98569.19
2019-06-01T03:05:22.074Z,98567.86
2019-06-01T03:06:25.534Z,98573.31
2019-06-01T03:07:28.388Z,98573.31
2019-06-01T03:08:32.153Z,98572.28
2019-06-01T03:09:34.969Z,98579.92
2019-06-01T03:10:38.420Z,98579.92
2019-06-01T03:11:41.289Z,98581.47
2019-06-01T03:12:47.921Z,98578.24
2019-06-01T03:13:50.827Z,98574.85
2019-06-01T03:14:54.597Z,98575.92
2019-06-01T03:15:58.183Z,98569.18
2019-06-01T03:17:02.022Z,98572.27
2019-06-01T03:18:05.678Z,98566.95
2019-06-01T03:19:09.146Z,98566.95
2019-06-01T03:20:11.973Z,98568.02
2019-06-01T03:21:16.095Z,98571.37
2019-06-01T03:22:19.026Z,98566.23
2019-06-01T03:23:22.415Z,98570.24
2019-06-01T03:24:26.033Z,98565.63
2019-06-01T03:25:29.500Z,98565.63
2019-06-01T03:26:32.381Z,98565.76
2019-06-01T03:27:36.300Z,98573.13
2019-06-01T03:28:39.109Z,98573.13
2019-06-01T03:29:42.609Z,98569.02
2019-06-01T03:30:46.212Z,98573.76
2019-06-01T03:31:49.716Z,98573.73
2019-06-01T03:32:52.544Z,98578.28
2019-06-01T03:33:56.260Z,98576.77
2019-06-01T03:34:59.068Z,98580.80
2019-06-01T03:36:02.817Z,98576.03
2019-06-01T03:37:07.089Z,98581.50
2019-06-01T03:38:11.146Z,98583.51
2019-06-01T03:39:14.037Z,98578.75
2019-06-01T03:40:23.670Z,98584.88
2019-06-01T03:41:23.432Z,98580.70
2019-06-01T03:42:27.407Z,98578.86
2019-06-01T03:43:30.283Z,98575.67
2019-06-01T03:44:33.657Z,98576.30
2019-06-01T03:45:39.588Z,98580.22
2019-06-01T03:46:43.477Z,98580.22
2019-06-01T03:47:46.296Z,98574.67
2019-06-01T03:48:52.263Z,98571.87
2019-06-01T03:49:55.439Z,98575.84
2019-06-01T03:50:58.815Z,98575.17
2019-06-01T03:52:02.706Z,98570.66
2019-06-01T03:53:06.475Z,98570.66
2019-06-01T03:54:10.150Z,98573.88
2019-06-01T03:55:13.648Z,98576.28
2019-06-01T03:56:19.985Z,98563.99
2019-06-01T03:57:23.396Z,98576.70
2019-06-01T03:58:26.209Z,98567.48
2019-06-01T03:59:29.978Z,98569.56
2019-06-01T04:00:32.779Z,98569.56
2019-06-01T04:01:36.249Z,98570.48
2019-06-01T04:02:39.154Z,98570.48
2019-06-01T04:03:42.723Z,98571.51
2019-06-01T04:04:45.979Z,98573.98
2019-06-01T04:05:52.379Z,98566.98
2019-06-01T04:06:55.564Z,98574.83
2019-06-01T04:07:59.011Z,98576.34
2019-06-01T04:09:01.897Z,98577.72
2019-06-01T04:10:09.804Z,98579.33
2019-06-01T04:11:12.973Z,98579.52
2019-06-01T04:12:16.689Z,98574.39
2019-06-01T04:13:19.569Z,98587.70
2019-06-01T04:14:22.970Z,98583.52
2019-06-01T04:15:25.786Z,98583.52
2019-06-01T04:16:29.682Z,98581.68
2019-06-01T04:17:34.030Z,98579.03
2019-06-01T04:18:38.375Z,98572.30
2019-06-01T04:19:41.203Z,98572.55
2019-06-01T04:20:44.623Z,98578.34
2019-06-01T04:21:47.468Z,98574.91
2019-06-01T04:22:50.863Z,98581.41
2019-06-01T04:23:54.038Z,98584.75
2019-06-01T04:24:57.496Z,98582.35
2019-06-01T04:26:00.318Z,98587.81
2019-06-01T04:27:04.152Z,98588.42
2019-06-01T04:28:10.226Z,98590.34
2019-06-01T04:29:13.665Z,98590.34
2019-06-01T04:30:17.577Z,98582.86
2019-06-01T04:31:22.519Z,98589.25
2019-06-01T04:32:25.439Z,98587.69
2019-06-01T04:33:39.931Z,98587.91
2019-06-01T04:34:42.727Z,98589.92
2019-06-01T04:35:46.134Z,98593.69
2019-06-01T04:36:49.236Z,98593.69
2019-06-01T04:37:52.698Z,98597.54
2019-06-01T04:38:55.506Z,98597.54
2019-06-01T04:39:58.907Z,98597.74
2019-06-01T04:41:01.745Z,98591.42
2019-06-01T04:42:05.574Z,98591.42
2019-06-01T04:43:12.082Z,98600.39
2019-06-01T04:44:18.214Z,98595.67
2019-06-01T04:45:20.380Z,98596.97
2019-06-01T04:46:24.234Z,98588.48
2019-06-01T04:47:27.400Z,98588.56
2019-06-01T04:48:31.297Z,98597.42
2019-06-01T04:49:34.464Z,98593.87
2019-06-01T04:50:37.863Z,98591.47
2019-06-01T04:51:41.093Z,98596.21
2019-06-01T04:52:44.478Z,98589.98
2019-06-01T04:53:47.351Z,98594.72
2019-06-01T04:54:50.744Z,98593.59
2019-06-01T04:55:53.974Z,98595.03
2019-06-01T04:56:57.730Z,98589.90
2019-06-01T04:58:00.520Z,98589.90
2019-06-01T04:59:04.897Z,98594.61
2019-06-01T05:00:15.621Z,98592.77
2019-06-01T05:01:13.096Z,98590.22
2019-06-01T05:02:16.211Z,98590.13
2019-06-01T05:03:20.160Z,98592.13
2019-06-01T05:04:23.021Z,98588.42
2019-06-01T05:05:26.440Z,98585.69
2019-06-01T05:06:29.284Z,98585.69
2019-06-01T05:07:32.647Z,98590.89
2019-06-01T05:08:35.775Z,98590.67
2019-06-01T05:09:39.237Z,98585.36
2019-06-01T05:10:42.353Z,98588.95
2019-06-01T05:11:45.767Z,98585.23
2019-06-01T05:12:48.567Z,98592.98
2019-06-01T05:13:52.365Z,98587.06
2019-06-01T05:14:55.519Z,98581.25
2019-06-01T05:15:58.939Z,98590.91
2019-06-01T05:17:01.806Z,98589.85
2019-06-01T05:18:05.922Z,98591.41
2019-06-01T05:19:10.131Z,98591.55
2019-06-01T05:20:14.723Z,98591.55
2019-06-01T05:21:21.383Z,98591.50
2019-06-01T05:22:27.545Z,98591.50
2019-06-01T05:23:30.704Z,98595.22
2019-06-01T05:24:34.200Z,98593.94
2019-06-01T05:25:37.024Z,98594.67
2019-06-01T05:26:40.757Z,98593.95
2019-06-01T05:27:44.026Z,98596.83
2019-06-01T05:28:49.326Z,98598.80
2019-06-01T05:29:53.488Z,98598.80
2019-06-01T05:44:01.720Z,98593.86
2019-06-01T05:45:05.305Z,98594.29
2019-06-01T05:46:08.132Z,98590.38
2019-06-01T05:47:12.167Z,98595.95
2019-06-01T05:48:24.619Z,98595.95
2019-06-01T05:49:20.236Z,98597.77
2019-06-01T05:50:23.136Z,98599.73
2019-06-01T05:51:26.598Z,98593.80
2019-06-01T05:52:31.582Z,98593.16
2019-06-01T05:53:36.382Z,98593.16
2019-06-01T05:54:40.655Z,98592.99
2019-06-01T05:55:48.206Z,98596.34
2019-06-01T05:56:51.037Z,98591.22
2019-06-01T05:57:54.461Z,98596.48
2019-06-01T05:58:57.264Z,98597.75
2019-06-01T06:00:00.750Z,98592.27
2019-06-01T06:01:03.855Z,98594.46
2019-06-01T06:02:07.263Z,98592.67
2019-06-01T06:03:14.516Z,98602.40
2019-06-01T06:04:15.404Z,98597.97
2019-06-01T06:05:18.771Z,98598.08
2019-06-01T06:06:22.277Z,98599.61
2019-06-01T06:07:25.459Z,98592.94
2019-06-01T06:08:28.836Z,98592.94
2019-06-01T06:09:31.688Z,98591.41
2019-06-01T06:10:35.172Z,98591.41
2019-06-01T06:11:37.981Z,98591.00
2019-06-01T06:12:41.430Z,98588.48
2019-06-01T06:13:44.534Z,98587.27
2019-06-01T06:14:47.968Z,98583.41
2019-06-01T06:15:50.796Z,98589.67
2019-06-01T06:16:54.234Z,98589.67
2019-06-01T06:17:57.082Z,98585.58
2019-06-01T06:19:00.563Z,98585.84
2019-06-01T06:20:03.706Z,98584.69
2019-06-01T06:21:07.186Z,98586.53
2019-06-01T06:22:10.025Z,98582.89
2019-06-01T06:23:14.242Z,98582.89
2019-06-01T06:24:18.418Z,98583.34
2019-06-01T06:25:21.976Z,98587.70
2019-06-01T06:26:25.155Z,98580.38
2019-06-01T06:27:28.557Z,98580.38
2019-06-01T06:28:31.346Z,98575.21
2019-06-01T06:29:37.207Z,98577.95
2019-06-01T06:30:42.339Z,98578.77
2019-06-01T06:31:47.510Z,98578.77
2019-06-01T06:32:53.498Z,98563.70
2019-06-01T06:34:04.166Z,98563.70
2019-06-01T06:35:07.013Z,98570.51
2019-06-01T06:36:10.405Z,98563.30
2019-06-01T06:37:13.515Z,98566.73
2019-06-01T06:38:17.848Z,98566.73
2019-06-01T06:39:21.981Z,98564.36
2019-06-01T06:40:25.454Z,98569.14
2019-06-01T06:41:28.292Z,98566.25
2019-06-01T06:42:32.088Z,98566.25
2019-06-01T06:43:37.576Z,98564.55
2019-06-01T06:44:41.007Z,98565.21
2019-06-01T06:45:47.070Z,98565.21
2019-06-01T06:46:50.590Z,98560.89
2019-06-01T06:47:53.496Z,98553.05
2019-06-01T06:48:57.926Z,98559.98
2019-06-01T06:50:04.175Z,98554.99
2019-06-01T06:51:09.864Z,98554.99
2019-06-01T06:52:12.771Z,98557.30
2019-06-01T06:53:25.348Z,98554.64
2019-06-01T06:54:21.808Z,98549.55
2019-06-01T06:55:26.115Z,98550.61
2019-06-01T06:56:29.427Z,98541.67
2019-06-01T06:57:34.663Z,98543.59
2019-06-01T06:58:37.481Z,98543.59
2019-06-01T06:59:45.671Z,98546.66
2019-06-01T07:00:51.090Z,98544.33
2019-06-01T07:01:56.163Z,98550.28
2019-06-01T07:03:02.264Z,98552.61
2019-06-01T07:04:12.726Z,98549.50
2019-06-01T07:05:10.125Z,98542.34
2019-06-01T07:06:13.550Z,98549.58
2019-06-01T07:07:18.068Z,98543.77
2019-06-01T07:08:21.870Z,98540.23
2019-06-01T07:09:26.130Z,98540.72
2019-06-01T07:10:30.168Z,98548.48
2019-06-01T07:11:32.991Z,98553.80
2019-06-01T07:12:36.380Z,98550.31
2019-06-01T07:13:39.264Z,98550.31
2019-06-01T07:14:43.107Z,98551.67
2019-06-01T07:15:48.267Z,98545.05
2019-06-01T07:16:51.409Z,98545.05
2019-06-01T07:17:54.827Z,98544.19
2019-06-01T07:18:58.586Z,98541.12
2019-06-01T07:20:04.677Z,98544.08
2019-06-01T07:21:08.202Z,98539.78
2019-06-01T07:22:11.329Z,98539.78
2019-06-01T07:23:15.643Z,98542.25
2019-06-01T07:24:19.521Z,98548.48
2019-06-01T07:25:23.129Z,98545.63
2019-06-01T07:26:26.254Z,98552.37
2019-06-01T07:27:29.780Z,98552.37
2019-06-01T07:28:33.140Z,98542.82
2019-06-01T07:29:36.823Z,98549.39
2019-06-01T07:30:49.879Z,98554.11
2019-06-01T07:31:44.844Z,98554.11
2019-06-01T07:32:50.209Z,98557.70
2019-06-01T07:33:53.682Z,98556.91
2019-06-01T07:35:00.652Z,98558.63
2019-06-01T07:36:01.863Z,98558.63
2019-06-01T07:37:04.696Z,98559.55
2019-06-01T07:38:08.484Z,98560.45
2019-06-01T07:39:11.783Z,98560.45
2019-06-01T07:40:17.947Z,98561.02
2019-06-01T07:41:21.110Z,98561.02
2019-06-01T07:42:25.986Z,98557.16
2019-06-01T07:43:29.126Z,98557.18
2019-06-01T07:44:33.243Z,98560.56
2019-06-01T07:45:36.539Z,98560.56
2019-06-01T07:46:41.231Z,98562.41
2019-06-01T07:47:47.124Z,98560.58
2019-06-01T07:48:50.620Z,98562.02
2019-06-01T07:49:53.533Z,98559.84
2019-06-01T07:50:59.007Z,98559.84
2019-06-01T07:52:12.994Z,98560.17
2019-06-01T07:53:11.266Z,98561.98
2019-06-01T07:54:20.143Z,98563.87
2019-06-01T07:55:19.612Z,98574.69
2019-06-01T07:56:26.539Z,98561.63
2019-06-01T07:57:33.273Z,98563.53
2019-06-01T07:58:37.280Z,98563.53
2019-06-01T07:59:43.351Z,98558.28
2019-06-01T08:00:48.538Z,98560.20
2019-06-01T08:01:52.137Z,98561.37
2019-06-01T08:02:56.162Z,98552.95
2019-06-01T08:03:59.700Z,98562.34
2019-06-01T08:05:02.663Z,98549.16
2019-06-01T08:06:06.156Z,98550.32
2019-06-01T08:07:09.018Z,98544.05
2019-06-01T08:08:14.385Z,98542.57
2019-06-01T08:09:17.295Z,98542.19
2019-06-01T08:10:21.348Z,98542.19
2019-06-01T08:11:29.358Z,98546.74
2019-06-01T08:12:31.553Z,98540.61
2019-06-01T08:13:35.880Z,98540.61
2019-06-01T08:14:39.458Z,98540.72
2019-06-01T08:15:42.265Z,98540.72
2019-06-01T08:16:45.663Z,98544.18
2019-06-01T08:17:48.950Z,98550.53
2019-06-01T08:18:57.241Z,98537.97
2019-06-01T08:20:02.170Z,98538.63
2019-06-01T08:21:09.369Z,98535.53
2019-06-01T08:22:12.698Z,98537.94
2019-06-01T08:23:17.220Z,98537.94
2019-06-01T08:24:26.115Z,98531.97
2019-06-01T08:25:32.801Z,98531.97
2019-06-01T08:26:36.554Z,98528.41
2019-06-01T08:27:40.539Z,98529.20
2019-06-01T08:28:46.490Z,98527.36
2019-06-01T08:29:57.212Z,98530.45
2019-06-01T08:31:01.834Z,98530.27
2019-06-01T08:32:08.438Z,98533.94
2019-06-01T08:33:26.522Z,98533.94
2019-06-01T08:34:29.088Z,98524.89
2019-06-01T08:35:34.660Z,98524.77
2019-06-01T08:36:38.395Z,98529.95
2019-06-01T08:37:41.394Z,98524.88
2019-06-01T08:38:46.016Z,98524.88
2019-06-01T08:39:48.881Z,98530.00
2019-06-01T08:40:52.347Z,98525.58
2019-06-01T08:41:57.946Z,98529.27
2019-06-01T08:43:04.049Z,98523.70
2019-06-01T08:44:06.947Z,98521.80
2019-06-01T08:45:10.401Z,98521.64
2019-06-01T08:46:16.039Z,98523.32
2019-06-01T08:47:21.139Z,98521.25
2019-06-01T08:48:27.646Z,98521.25
2019-06-01T08:49:32.501Z,98519.33
2019-06-01T08:50:36.992Z,98524.63
2019-06-01T08:51:40.448Z,98520.06
2019-06-01T08:52:43.673Z,98519.69
2019-06-01T08:53:47.001Z,98521.30
2019-06-01T08:54:50.264Z,98521.33
2019-06-01T08:55:53.797Z,98517.50
2019-06-01T08:56:56.939Z,98515.73
2019-06-01T08:58:00.387Z,98515.73
2019-06-01T08:59:05.290Z,98518.88
2019-06-01T09:00:09.760Z,98518.90
2019-06-01T09:02:38.310Z,98518.53
2019-06-01T09:03:46.352Z,98510.70
2019-06-01T09:04:46.114Z,98511.14
2019-06-01T09:05:48.961Z,98507.37
2019-06-01T09:06:54.304Z,98504.79
2019-06-01T09:08:00.060Z,98510.16
2019-06-01T09:09:03.338Z,98508.55
2019-06-01T09:10:06.843Z,98508.86
2019-06-01T09:11:10.274Z,98491.58
2019-06-01T09:12:18.146Z,98511.03
2019-06-01T09:13:29.129Z,98511.03
2019-06-01T09:14:31.715Z,98503.41
2019-06-01T09:15:35.612Z,98503.19
2019-06-01T09:16:41.147Z,98509.50
2019-06-01T09:17:44.983Z,98509.19
2019-06-01T09:18:47.656Z,98509.19
2019-06-01T09:19:51.547Z,98503.02
2019-06-01T09:20:55.711Z,98500.65
2019-06-01T09:22:00.299Z,98503.02
2019-06-01T09:23:04.225Z,98501.25
2019-06-01T09:24:08.079Z,98501.25
2019-06-01T09:25:12.455Z,98497.64
2019-06-01T09:26:16.150Z,98503.62
2019-06-01T09:27:18.801Z,98502.02
2019-06-01T09:28:23.242Z,98513.94
2019-06-01T09:29:32.134Z,98513.94
2019-06-01T09:30:40.238Z,98500.23
2019-06-01T09:31:47.785Z,98502.61
2019-06-01T09:32:51.495Z,98499.23
2019-06-01T09:33:54.167Z,98504.59
2019-06-01T09:35:04.257Z,98504.59
2019-06-01T09:36:10.061Z,98501.84
2019-06-01T09:37:13.289Z,98502.82
2019-06-01T09:38:20.287Z,98503.23
2019-06-01T09:39:29.083Z,98504.45
2019-06-01T09:40:35.144Z,98504.45
2019-06-01T09:41:38.526Z,98505.42
2019-06-01T09:42:41.346Z,98495.50
2019-06-01T09:43:46.613Z,98498.67
2019-06-01T09:44:53.535Z,98502.24
2019-06-01T09:46:04.122Z,98495.45
2019-06-01T09:47:07.293Z,98497.05
2019-06-01T09:48:10.707Z,98484.34
2019-06-01T09:49:13.425Z,98484.34
2019-06-01T09:50:16.764Z,98489.88
2019-06-01T09:51:19.911Z,98496.27
2019-06-01T09:52:23.470Z,98496.27
2019-06-01T09:53:27.485Z,98490.66
2019-06-01T09:54:32.735Z,98487.62
2019-06-01T09:55:36.466Z,98487.62
2019-06-01T09:56:49.377Z,98482.41
2019-06-01T09:57:52.278Z,98479.49
2019-06-01T09:58:58.049Z,98479.49
2019-06-01T10:00:00.797Z,98483.39
2019-06-01T10:01:05.092Z,98474.85
2019-06-01T10:02:13.701Z,98496.45
2019-06-01T10:03:19.788Z,98485.56
2019-06-01T10:04:22.637Z,98485.56
2019-06-01T10:05:26.326Z,98483.73
2019-06-01T10:06:28.991Z,98485.21
2019-06-01T10:07:32.917Z,98485.21
2019-06-01T10:08:36.122Z,98484.87
2019-06-01T10:09:39.652Z,98478.95
2019-06-01T10:10:42.541Z,98484.69
2019-06-01T10:11:46.137Z,98475.92
2019-06-01T10:12:51.619Z,98477.49
2019-06-01T10:13:54.968Z,98477.49
2019-06-01T10:14:57.691Z,98479.66
2019-06-01T10:16:02.786Z,98475.67
2019-06-01T10:17:07.296Z,98480.65
2019-06-01T10:18:14.448Z,98480.65
2019-06-01T10:19:17.332Z,98482.63
2019-06-01T10:20:21.186Z,98483.25
2019-06-01T10:21:23.858Z,98478.71
2019-06-01T10:22:30.966Z,98478.41
2019-06-01T10:23:34.668Z,98481.16
2019-06-01T10:24:41.349Z,98481.16
2019-06-01T10:25:44.151Z,98479.54
2019-06-01T10:26:48.367Z,98479.91
2019-06-01T10:27:59.762Z,98474.48
2019-06-01T10:29:03.301Z,98474.48
2019-06-01T10:42:48.124Z,98473.12
2019-06-01T10:43:52.459Z,98478.55
2019-06-01T10:44:55.197Z,98483.02
2019-06-01T10:45:58.437Z,98471.48
2019-06-01T10:47:03.968Z,98465.19
2019-06-01T10:48:07.556Z,98474.03
2019-06-01T10:49:13.389Z,98453.67
2019-06-01T10:50:17.483Z,98453.67
2019-06-01T10:51:20.612Z,98457.89
2019-06-01T10:52:23.866Z,98462.18
2019-06-01T10:53:29.134Z,98467.31
2019-06-01T10:54:38.192Z,98464.23
2019-06-01T10:55:42.363Z,98464.23
2019-06-01T10:56:49.956Z,98458.75
2019-06-01T10:57:52.824Z,98458.75
2019-06-01T10:59:03.805Z,98473.22
2019-06-01T11:00:06.951Z,98460.97
2019-06-01T11:01:10.250Z,98460.97
2019-06-01T11:02:15.666Z,98446.50
2019-06-01T11:03:19.132Z,98453.54
2019-06-01T11:04:23.684Z,98455.91
2019-06-01T11:05:27.247Z,98455.45
2019-06-01T11:06:40.220Z,98455.45
2019-06-01T11:07:36.744Z,98457.33
2019-06-01T11:08:41.053Z,98457.33
2019-06-01T11:09:44.380Z,98446.05
2019-06-01T11:10:47.063Z,98446.05
2019-06-01T11:11:50.321Z,98464.30
2019-06-01T11:12:53.554Z,98464.30
2019-06-01T11:13:56.880Z,98441.47
2019-06-01T11:14:59.745Z,98453.52
2019-06-01T11:16:03.079Z,98454.05
2019-06-01T11:17:06.288Z,98446.45
2019-06-01T11:18:10.180Z,98449.38
2019-06-01T11:19:13.407Z,98446.83
2019-06-01T11:20:22.896Z,98446.83
2019-06-01T11:21:28.730Z,98430.85
2019-06-01T11:22:43.591Z,98444.77
2019-06-01T11:23:49.208Z,98443.97
2019-06-01T11:25:13.429Z,98453.40
2019-06-01T11:26:28.295Z,98442.66
2019-06-01T11:27:37.731Z,98442.66
2019-06-01T11:28:44.364Z,98448.09
2019-06-01T11:29:51.441Z,98448.09
2019-06-01T11:30:52.428Z,98443.66
2019-06-01T11:31:56.150Z,98437.39
2019-06-01T11:32:59.143Z,98437.39
2019-06-01T11:34:02.574Z,98440.12
2019-06-01T11:35:05.261Z,98444.70
2019-06-01T11:36:08.579Z,98438.59
2019-06-01T11:37:15.190Z,98434.62
2019-06-01T11:38:16.488Z,98434.13
2019-06-01T11:39:19.341Z,98430.97
2019-06-01T11:40:22.820Z,98428.31
2019-06-01T11:41:25.762Z,98428.31
2019-06-01T11:42:48.167Z,98427.07
2019-06-01T11:43:51.459Z,98436.28
2019-06-01T11:44:55.274Z,98427.25
2019-06-01T11:45:58.011Z,98429.51
2019-06-01T11:47:01.789Z,98432.41
2019-06-01T11:48:04.638Z,98431.87
2019-06-01T11:49:07.989Z,98431.87
2019-06-01T11:50:10.947Z,98417.71
2019-06-01T11:51:14.359Z,98415.95
2019-06-01T11:52:17.096Z,98415.95
2019-06-01T11:53:20.500Z,98413.67
2019-06-01T11:54:23.187Z,98420.57
2019-06-01T11:55:29.033Z,98411.61
2019-06-01T11:56:32.011Z,98402.27
2019-06-01T11:57:35.417Z,98400.69
2019-06-01T11:58:48.094Z,98400.69
2019-06-01T11:59:51.389Z,98403.44
2019-06-01T12:00:54.279Z,98399.71
2019-06-01T12:01:57.584Z,98407.73
2019-06-01T12:03:03.646Z,98400.77
2019-06-01T12:04:16.055Z,98406.73
2019-06-01T12:05:18.412Z,98395.09
2019-06-01T12:06:24.799Z,98395.09
2019-06-01T12:07:31.757Z,98399.52
2019-06-01T12:08:38.101Z,98389.91
2019-06-01T12:09:46.897Z,98396.27
2019-06-01T12:10:50.277Z,98389.70
2019-06-01T12:11:53.798Z,98389.70
2019-06-01T12:12:57.100Z,98378.70
2019-06-01T12:14:01.018Z,98387.55
2019-06-01T12:15:04.570Z,98384.22
2019-06-01T12:16:07.686Z,98394.24
2019-06-01T12:17:11.215Z,98402.55
2019-06-01T12:18:15.937Z,98402.55
2019-06-01T12:19:19.669Z,98387.66
2019-06-01T12:20:25.700Z,98389.12
2019-06-01T12:21:32.169Z,98380.92
2019-06-01T12:22:35.212Z,98380.92
2019-06-01T12:23:41.471Z,98382.63
2019-06-01T12:24:47.505Z,98382.03
2019-06-01T12:25:52.671Z,98381.30
2019-06-01T12:26:58.147Z,98380.45
2019-06-01T12:28:01.461Z,98380.45
2019-06-01T12:29:06.053Z,98372.28
2019-06-01T12:30:09.528Z,98372.28
2019-06-01T12:31:14.762Z,98376.69
2019-06-01T12:32:19.053Z,98376.80
2019-06-01T12:33:22.316Z,98384.23
2019-06-01T12:34:25.813Z,98376.87
2019-06-01T12:35:30.936Z,98380.52
2019-06-01T12:36:38.710Z,98380.52
2019-06-01T12:38:21.857Z,98369.18
2019-06-01T12:38:54.408Z,98369.18
2019-06-01T12:39:57.067Z,98363.86
2019-06-01T12:41:00.308Z,98363.86
2019-06-01T12:42:03.489Z,98363.73
2019-06-01T12:43:11.117Z,98359.69
2019-06-01T12:44:15.264Z,98370.47
2019-06-01T12:45:23.174Z,98367.73
2019-06-01T12:46:26.093Z,98367.73
2019-06-01T12:47:29.522Z,98367.50
2019-06-01T12:48:32.653Z,98367.50
2019-06-01T12:49:37.750Z,98371.70
2019-06-01T12:50:46.150Z,98365.75
2019-06-01T12:51:50.514Z,98359.05
2019-06-01T12:52:55.419Z,98362.52
2019-06-01T12:54:00.156Z,98366.25
2019-06-01T12:55:05.902Z,98365.34
2019-06-01T12:56:11.326Z,98365.06
2019-06-01T12:57:14.235Z,98365.06
2019-06-01T12:58:21.555Z,98351.48
2019-06-01T12:59:26.388Z,98364.47
2019-06-01T13:00:31.176Z,98361.50
2019-06-01T13:01:41.575Z,98361.50
2019-06-01T13:02:56.524Z,98360.40
2019-06-01T13:03:54.007Z,98361.73